Time,TemperatureF,DewpointF,PressureIn,WindDirection,WindDirectionDegrees,WindSpeedMPH,WindSpeedGustMPH,Humidity,HourlyPrecipIn,Conditions,Clouds,dailyrainin,SoftwareType,DateUTC
2013-01-18 00:09:00,34.7,27.3,30.18,WNW,292,0.0,-999.0,74,-99.99,,,0.00,Acu-Link.com,2013-01-18 05:09:00,
2013-01-18 00:24:00,33.8,26.7,30.18,WSW,247,0.0,-999.0,75,-99.99,,,0.00,Acu-Link.com,2013-01-18 05:24:00,
2013-01-18 00:39:00,32.9,25.9,30.19,WSW,247,0.0,-999.0,75,-99.99,,,0.00,Acu-Link.com,2013-01-18 05:39:00,
2013-01-18 00:55:00,32.2,25.8,30.20,SW,225,0.0,-999.0,77,-99.99,,,0.00,Acu-Link.com,2013-01-18 05:55:00,
2013-01-18 01:10:00,31.6,26.7,30.21,West,270,0.0,-999.0,82,-99.99,,,0.00,Acu-Link.com,2013-01-18 06:10:00,
2013-01-18 01:25:00,31.5,26.7,30.21,NNW,337,0.0,-999.0,82,-99.99,,,0.00,Acu-Link.com,2013-01-18 06:25:00,
2013-01-18 01:56:00,30.6,26.1,30.22,WSW,247,0.0,-999.0,83,-99.99,,,0.00,Acu-Link.com,2013-01-18 06:56:00,
2013-01-18 02:11:00,30.4,26.4,30.23,West,270,0.0,-999.0,85,-99.99,,,0.00,Acu-Link.com,2013-01-18 07:11:00,
2013-01-18 02:26:00,30.6,26.6,30.24,West,270,1.7,-999.0,85,-99.99,,,0.00,Acu-Link.com,2013-01-18 07:26:00,
2013-01-18 02:42:00,30.9,27.2,30.23,WNW,292,1.7,-999.0,86,-99.99,,,0.00,Acu-Link.com,2013-01-18 07:42:00,
2013-01-18 02:57:00,30.9,26.9,30.23,NNW,337,2.7,-999.0,85,-99.99,,,0.00,Acu-Link.com,2013-01-18 07:57:00,
2013-01-18 03:12:00,30.9,26.9,30.24,West,270,0.0,-999.0,85,-99.99,,,0.00,Acu-Link.com,2013-01-18 08:12:00,
2013-01-18 03:28:00,30.4,26.7,30.24,NW,315,1.7,-999.0,86,-99.99,,,0.00,Acu-Link.com,2013-01-18 08:28:00,
2013-01-18 03:43:00,30.2,26.5,30.25,NW,315,1.7,-999.0,86,-99.99,,,0.00,Acu-Link.com,2013-01-18 08:43:00,
2013-01-18 03:58:00,30.0,26.3,30.25,West,270,0.0,-999.0,86,-99.99,,,0.00,Acu-Link.com,2013-01-18 08:58:00,
2013-01-18 04:13:00,29.5,26.1,30.25,WNW,292,1.7,-999.0,87,-99.99,,,0.00,Acu-Link.com,2013-01-18 09:13:00,
2013-01-18 04:29:00,29.7,26.3,30.25,NW,315,0.0,-999.0,87,-99.99,,,0.00,Acu-Link.com,2013-01-18 09:29:00,
2013-01-18 04:44:00,29.5,26.1,30.24,WNW,292,0.0,-999.0,87,-99.99,,,0.00,Acu-Link.com,2013-01-18 09:44:00,
2013-01-18 05:00:00,29.3,26.2,30.24,NW,315,0.0,-999.0,88,-99.99,,,0.00,Acu-Link.com,2013-01-18 10:00:00,
2013-01-18 05:15:00,28.4,25.0,30.25,NW,315,0.0,-999.0,87,-99.99,,,0.00,Acu-Link.com,2013-01-18 10:15:00,
2013-01-18 05:30:00,28.0,24.9,30.25,ENE,67,0.0,-999.0,88,-99.99,,,0.00,Acu-Link.com,2013-01-18 10:30:00,
2013-01-18 05:46:00,27.7,24.9,30.25,NE,45,0.0,-999.0,89,-99.99,,,0.00,Acu-Link.com,2013-01-18 10:46:00,
2013-01-18 06:01:00,27.5,24.7,30.25,NE,45,0.0,-999.0,89,-99.99,,,0.00,Acu-Link.com,2013-01-18 11:01:00,
2013-01-18 06:16:00,27.5,25.5,30.27,West,270,0.0,-999.0,92,-99.99,,,0.00,Acu-Link.com,2013-01-18 11:16:00,
2013-01-18 06:31:00,27.7,25.7,30.27,East,90,0.0,-999.0,92,-99.99,,,0.00,Acu-Link.com,2013-01-18 11:31:00,
2013-01-18 06:47:00,27.3,25.3,30.28,NW,315,2.2,-999.0,92,-99.99,,,0.00,Acu-Link.com,2013-01-18 11:47:00,
2013-01-18 07:02:00,27.1,25.4,30.28,WNW,292,1.7,-999.0,93,-99.99,,,0.00,Acu-Link.com,2013-01-18 12:02:00,
2013-01-18 07:17:00,27.0,25.3,30.29,NW,315,1.7,-999.0,93,-99.99,,,0.00,Acu-Link.com,2013-01-18 12:17:00,
2013-01-18 07:33:00,27.3,25.5,30.29,WNW,292,0.0,-999.0,93,-99.99,,,0.00,Acu-Link.com,2013-01-18 12:33:00,
2013-01-18 07:48:00,27.0,25.3,30.30,WNW,292,0.0,-999.0,93,-99.99,,,0.00,Acu-Link.com,2013-01-18 12:48:00,
2013-01-18 08:03:00,27.3,25.5,30.31,NNW,337,1.7,-999.0,93,-99.99,,,0.00,Acu-Link.com,2013-01-18 13:03:00,
2013-01-18 08:18:00,28.4,26.6,30.33,WNW,292,2.7,-999.0,93,-99.99,,,0.00,Acu-Link.com,2013-01-18 13:18:00,
2013-01-18 08:34:00,30.7,28.9,30.33,WNW,292,1.7,-999.0,93,-99.99,,,0.00,Acu-Link.com,2013-01-18 13:34:00,
2013-01-18 08:49:00,33.1,30.8,30.33,WNW,292,1.7,-999.0,91,-99.99,,,0.00,Acu-Link.com,2013-01-18 13:49:00,
2013-01-18 09:04:00,35.1,30.8,30.35,NW,315,0.0,-999.0,84,-99.99,,,0.00,Acu-Link.com,2013-01-18 14:04:00,
2013-01-18 09:19:00,36.3,31.0,30.35,NW,315,2.7,-999.0,81,-99.99,,,0.00,Acu-Link.com,2013-01-18 14:19:00,
2013-01-18 09:35:00,38.3,32.1,30.36,NNE,22,2.7,-999.0,78,-99.99,,,0.00,Acu-Link.com,2013-01-18 14:35:00,
2013-01-18 09:50:00,39.2,32.0,30.37,NE,45,3.2,-999.0,75,-99.99,,,0.00,Acu-Link.com,2013-01-18 14:50:00,
2013-01-18 10:05:00,39.6,31.7,30.37,ESE,112,2.2,-999.0,73,-99.99,,,0.00,Acu-Link.com,2013-01-18 15:05:00,
2013-01-18 10:21:00,40.1,32.2,30.37,NNW,337,3.7,-999.0,73,-99.99,,,0.00,Acu-Link.com,2013-01-18 15:21:00,
2013-01-18 10:36:00,40.8,31.8,30.38,NNW,337,2.7,-999.0,70,-99.99,,,0.00,Acu-Link.com,2013-01-18 15:36:00,
2013-01-18 10:51:00,41.2,32.9,30.38,WNW,292,2.2,-999.0,72,-99.99,,,0.00,Acu-Link.com,2013-01-18 15:51:00,
2013-01-18 11:07:00,41.7,32.6,30.38,North,0,1.7,-999.0,70,-99.99,,,0.00,Acu-Link.com,2013-01-18 16:07:00,
2013-01-18 11:22:00,42.8,33.0,30.38,NW,315,3.7,-999.0,68,-99.99,,,0.00,Acu-Link.com,2013-01-18 16:22:00,
2013-01-18 11:37:00,43.0,33.9,30.39,ESE,112,3.2,-999.0,70,-99.99,,,0.00,Acu-Link.com,2013-01-18 16:37:00,
2013-01-18 11:52:00,43.0,31.7,30.38,NNW,337,2.2,-999.0,64,-99.99,,,0.00,Acu-Link.com,2013-01-18 16:52:00,
2013-01-18 12:08:00,44.4,33.8,30.36,ESE,112,3.7,-999.0,66,-99.99,,,0.00,Acu-Link.com,2013-01-18 17:08:00,
2013-01-18 12:23:00,44.1,33.1,30.36,SSE,157,5.8,-999.0,65,-99.99,,,0.00,Acu-Link.com,2013-01-18 17:23:00,
2013-01-18 12:38:00,45.0,32.8,30.35,SSE,157,0.0,-999.0,62,-99.99,,,0.00,Acu-Link.com,2013-01-18 17:38:00,
2013-01-18 12:54:00,45.1,32.5,30.35,SW,225,1.7,-999.0,61,-99.99,,,0.00,Acu-Link.com,2013-01-18 17:54:00,
2013-01-18 13:09:00,44.8,33.0,30.34,SSE,157,4.7,-999.0,63,-99.99,,,0.00,Acu-Link.com,2013-01-18 18:09:00,
2013-01-18 13:24:00,44.8,32.2,30.33,South,180,0.0,-999.0,61,-99.99,,,0.00,Acu-Link.com,2013-01-18 18:24:00,
2013-01-18 13:40:00,45.5,32.4,30.33,ESE,112,4.7,-999.0,60,-99.99,,,0.00,Acu-Link.com,2013-01-18 18:40:00,
2013-01-18 13:55:00,46.0,33.3,30.32,ESE,112,5.3,-999.0,61,-99.99,,,0.00,Acu-Link.com,2013-01-18 18:55:00,
2013-01-18 14:10:00,46.4,31.6,30.31,SSE,157,2.7,-999.0,56,-99.99,,,0.00,Acu-Link.com,2013-01-18 19:10:00,
2013-01-18 14:25:00,47.3,32.4,30.31,ESE,112,2.7,-999.0,56,-99.99,,,0.00,Acu-Link.com,2013-01-18 19:25:00,
2013-01-18 14:41:00,47.8,32.4,30.31,ESE,112,2.7,-999.0,55,-99.99,,,0.00,Acu-Link.com,2013-01-18 19:41:00,
2013-01-18 14:56:00,47.7,31.4,30.31,SSE,157,3.7,-999.0,53,-99.99,,,0.00,Acu-Link.com,2013-01-18 19:56:00,
2013-01-18 15:11:00,48.4,30.1,30.30,NNE,22,6.3,-999.0,49,-99.99,,,0.00,Acu-Link.com,2013-01-18 20:11:00,
2013-01-18 15:27:00,49.8,23.3,30.30,ESE,112,3.7,-999.0,35,-99.99,,,0.00,Acu-Link.com,2013-01-18 20:27:00,
2013-01-18 15:42:00,50.4,21.7,30.29,SE,135,2.7,-999.0,32,-99.99,,,0.00,Acu-Link.com,2013-01-18 20:42:00,
2013-01-18 15:57:00,50.4,20.9,30.29,East,90,1.7,-999.0,31,-99.99,,,0.00,Acu-Link.com,2013-01-18 20:57:00,
2013-01-18 16:13:00,49.8,18.8,30.29,East,90,2.2,-999.0,29,-99.99,,,0.00,Acu-Link.com,2013-01-18 21:13:00,
2013-01-18 16:28:00,49.1,16.6,30.28,East,90,2.7,-999.0,27,-99.99,,,0.00,Acu-Link.com,2013-01-18 21:28:00,
2013-01-18 16:43:00,48.9,16.4,30.29,NE,45,2.7,-999.0,27,-99.99,,,0.00,Acu-Link.com,2013-01-18 21:43:00,
2013-01-18 16:58:00,48.6,17.0,30.28,ESE,112,2.2,-999.0,28,-99.99,,,0.00,Acu-Link.com,2013-01-18 21:58:00,
2013-01-18 17:14:00,48.6,5.8,30.28,East,90,1.7,-999.0,17,-99.99,,,0.00,Acu-Link.com,2013-01-18 22:14:00,
2013-01-18 17:29:00,46.2,14.9,30.28,East,90,0.0,-999.0,28,-99.99,,,0.00,Acu-Link.com,2013-01-18 22:29:00,
2013-01-18 17:44:00,44.4,22.2,30.28,WNW,292,0.0,-999.0,41,-99.99,,,0.00,Acu-Link.com,2013-01-18 22:44:00,
2013-01-18 18:00:00,42.6,24.3,30.28,ENE,67,0.0,-999.0,48,-99.99,,,0.00,Acu-Link.com,2013-01-18 23:00:00,
2013-01-18 18:15:00,41.4,26.9,30.28,ENE,67,0.0,-999.0,56,-99.99,,,0.00,Acu-Link.com,2013-01-18 23:15:00,
2013-01-18 18:30:00,40.3,27.9,30.28,West,270,0.0,-999.0,61,-99.99,,,0.00,Acu-Link.com,2013-01-18 23:30:00,
2013-01-18 18:46:00,39.4,27.9,30.29,West,270,1.1,-999.0,63,-99.99,,,0.00,Acu-Link.com,2013-01-18 23:46:00,
2013-01-18 19:01:00,38.3,28.3,30.28,WNW,292,1.7,-999.0,67,-99.99,,,0.00,Acu-Link.com,2013-01-19 00:01:00,
2013-01-18 19:16:00,37.0,28.1,30.29,NNW,337,2.2,-999.0,70,-99.99,,,0.00,Acu-Link.com,2013-01-19 00:16:00,
2013-01-18 19:31:00,36.5,28.3,30.29,NW,315,2.2,-999.0,72,-99.99,,,0.00,Acu-Link.com,2013-01-19 00:31:00,
2013-01-18 19:47:00,36.0,27.9,30.29,WNW,292,1.7,-999.0,72,-99.99,,,0.00,Acu-Link.com,2013-01-19 00:47:00,
2013-01-18 20:02:00,35.1,27.3,30.28,West,270,0.0,-999.0,73,-99.99,,,0.00,Acu-Link.com,2013-01-19 01:02:00,
2013-01-18 20:17:00,34.3,26.6,30.29,West,270,0.0,-999.0,73,-99.99,,,0.00,Acu-Link.com,2013-01-19 01:17:00,
2013-01-18 20:33:00,33.8,26.1,30.29,West,270,0.0,-999.0,73,-99.99,,,0.00,Acu-Link.com,2013-01-19 01:33:00,
2013-01-18 20:48:00,33.4,28.8,30.28,West,270,1.7,-999.0,83,-99.99,,,0.00,Acu-Link.com,2013-01-19 01:48:00,
2013-01-18 21:03:00,32.9,28.0,30.28,NW,315,2.2,-999.0,82,-99.99,,,0.00,Acu-Link.com,2013-01-19 02:03:00,
2013-01-18 21:19:00,32.5,27.9,30.29,NW,315,1.7,-999.0,83,-99.99,,,0.00,Acu-Link.com,2013-01-19 02:19:00,
2013-01-18 21:34:00,32.0,27.7,30.29,NW,315,0.0,-999.0,84,-99.99,,,0.00,Acu-Link.com,2013-01-19 02:34:00,
2013-01-18 21:49:00,31.5,28.4,30.28,WNW,292,0.0,-999.0,88,-99.99,,,0.00,Acu-Link.com,2013-01-19 02:49:00,
2013-01-18 22:04:00,31.1,28.2,30.28,WNW,292,2.2,-999.0,89,-99.99,,,0.00,Acu-Link.com,2013-01-19 03:04:00,
2013-01-18 22:20:00,30.7,27.8,30.29,NW,315,0.0,-999.0,89,-99.99,,,0.00,Acu-Link.com,2013-01-19 03:20:00,
2013-01-18 22:35:00,30.4,27.8,30.28,NW,315,2.7,-999.0,90,-99.99,,,0.00,Acu-Link.com,2013-01-19 03:35:00,
2013-01-18 22:50:00,30.0,27.4,30.28,WNW,292,1.7,-999.0,90,-99.99,,,0.00,Acu-Link.com,2013-01-19 03:50:00,
2013-01-18 23:06:00,29.5,26.7,30.28,WNW,292,0.0,-999.0,89,-99.99,,,0.00,Acu-Link.com,2013-01-19 04:06:00,
2013-01-18 23:21:00,29.1,26.3,30.27,WNW,292,0.0,-999.0,89,-99.99,,,0.00,Acu-Link.com,2013-01-19 04:21:00,
2013-01-18 23:36:00,29.1,26.3,30.26,WNW,292,0.0,-999.0,89,-99.99,,,0.00,Acu-Link.com,2013-01-19 04:36:00,
2013-01-18 23:52:00,28.8,26.5,30.26,NW,315,1.7,-999.0,91,-99.99,,,0.00,Acu-Link.com,2013-01-19 04:52:00,